sensor_id;sensor_type;location;lat;lon;timestamp;pressure;altitude;pressure_sealevel;temperature;humidity
71697;BME280;68167;59.120;37.898;2023-05-01T00:01:50;99289.44;;;9.40;45.42
71697;BME280;68167;59.120;37.898;2023-05-01T00:04:17;99252.19;;;9.24;45.55
71697;BME280;68167;59.120;37.898;2023-05-01T00:06:44;99213.09;;;9.00;46.13
71697;BME280;68167;59.120;37.898;2023-05-01T00:09:10;99282.25;;;9.40;45.75
71697;BME280;68167;59.120;37.898;2023-05-01T00:11:36;99262.28;;;9.28;46.47
71697;BME280;68167;59.120;37.898;2023-05-01T00:14:03;99267.09;;;9.31;46.33
71697;BME280;68167;59.120;37.898;2023-05-01T00:16:29;99256.72;;;9.24;46.22
71697;BME280;68167;59.120;37.898;2023-05-01T00:18:56;99248.72;;;9.19;46.93
71697;BME280;68167;59.120;37.898;2023-05-01T00:21:22;99190.47;;;8.82;46.92
71697;BME280;68167;59.120;37.898;2023-05-01T00:23:48;99154.56;;;8.64;46.51
71697;BME280;68167;59.120;37.898;2023-05-01T00:26:15;99196.84;;;8.86;46.71
71697;BME280;68167;59.120;37.898;2023-05-01T00:28:45;99238.34;;;9.12;46.77
71697;BME280;68167;59.120;37.898;2023-05-01T00:31:11;99231.97;;;9.03;46.59
71697;BME280;68167;59.120;37.898;2023-05-01T00:33:38;99212.50;;;8.82;46.94
71697;BME280;68167;59.120;37.898;2023-05-01T00:36:05;99231.44;;;9.01;46.54
71697;BME280;68167;59.120;37.898;2023-05-01T00:38:31;99189.38;;;8.73;46.91
71697;BME280;68167;59.120;37.898;2023-05-01T00:40:58;99216.78;;;8.94;46.74
71697;BME280;68167;59.120;37.898;2023-05-01T00:43:24;99175.81;;;8.69;47.44
71697;BME280;68167;59.120;37.898;2023-05-01T00:45:51;99223.97;;;8.98;47.47
71697;BME280;68167;59.120;37.898;2023-05-01T00:48:17;99209.88;;;8.93;46.96
71697;BME280;68167;59.120;37.898;2023-05-01T00:50:44;99199.53;;;8.91;46.81
71697;BME280;68167;59.120;37.898;2023-05-01T00:53:11;99168.13;;;8.68;47.29
71697;BME280;68167;59.120;37.898;2023-05-01T00:55:40;99214.94;;;8.94;47.67
71697;BME280;68167;59.120;37.898;2023-05-01T00:58:07;99199.25;;;8.87;47.42
71697;BME280;68167;59.120;37.898;2023-05-01T01:00:35;99144.97;;;8.53;47.37
71697;BME280;68167;59.120;37.898;2023-05-01T01:03:02;99161.72;;;8.64;47.38
71697;BME280;68167;59.120;37.898;2023-05-01T01:05:31;99196.31;;;8.84;47.43
71697;BME280;68167;59.120;37.898;2023-05-01T01:08:10;99185.69;;;8.79;47.41
71697;BME280;68167;59.120;37.898;2023-05-01T01:13:46;99127.72;;;8.50;47.29
71697;BME280;68167;59.120;37.898;2023-05-01T01:16:22;99191.56;;;8.86;47.88
71697;BME280;68167;59.120;37.898;2023-05-01T01:19:02;99181.72;;;8.81;47.03
71697;BME280;68167;59.120;37.898;2023-05-01T01:21:41;99175.88;;;8.84;47.30
71697;BME280;68167;59.120;37.898;2023-05-01T01:35:19;99143.47;;;8.77;47.72
71697;BME280;68167;59.120;37.898;2023-05-01T01:37:59;99104.16;;;8.59;48.23
71697;BME280;68167;59.120;37.898;2023-05-01T01:40:54;99141.91;;;8.86;47.31
71697;BME280;68167;59.120;37.898;2023-05-01T01:43:23;99116.94;;;8.72;48.06
71697;BME280;68167;59.120;37.898;2023-05-01T01:46:02;99129.69;;;8.75;48.18
71697;BME280;68167;59.120;37.898;2023-05-01T01:48:33;99156.78;;;8.87;48.42
71697;BME280;68167;59.120;37.898;2023-05-01T01:51:05;99153.59;;;8.85;48.40
71697;BME280;68167;59.120;37.898;2023-05-01T01:53:34;99106.53;;;8.61;48.51
71697;BME280;68167;59.120;37.898;2023-05-01T01:56:03;99142.97;;;8.85;48.31
71697;BME280;68167;59.120;37.898;2023-05-01T01:58:31;99141.69;;;8.93;48.19
71697;BME280;68167;59.120;37.898;2023-05-01T02:01:00;99106.59;;;8.76;47.88
71697;BME280;68167;59.120;37.898;2023-05-01T02:03:27;99104.22;;;8.79;48.66
71697;BME280;68167;59.120;37.898;2023-05-01T02:05:56;99137.97;;;8.94;49.00
71697;BME280;68167;59.120;37.898;2023-05-01T02:08:24;99122.03;;;8.94;48.72
71697;BME280;68167;59.120;37.898;2023-05-01T02:10:53;99123.66;;;9.00;48.56
71697;BME280;68167;59.120;37.898;2023-05-01T02:13:28;99075.81;;;8.75;48.64
71697;BME280;68167;59.120;37.898;2023-05-01T02:15:57;99049.78;;;8.62;47.88
71697;BME280;68167;59.120;37.898;2023-05-01T02:18:26;99112.78;;;9.02;48.00
71697;BME280;68167;59.120;37.898;2023-05-01T02:20:56;99078.75;;;8.83;47.96
71697;BME280;68167;59.120;37.898;2023-05-01T02:23:26;99106.91;;;9.00;48.97
71697;BME280;68167;59.120;37.898;2023-05-01T02:25:55;99058.56;;;8.72;48.81
71697;BME280;68167;59.120;37.898;2023-05-01T02:28:23;99111.97;;;9.16;48.05
71697;BME280;68167;59.120;37.898;2023-05-01T02:30:52;99099.75;;;9.15;48.54
71697;BME280;68167;59.120;37.898;2023-05-01T02:33:19;99092.31;;;9.17;48.58
71697;BME280;68167;59.120;37.898;2023-05-01T02:35:46;99067.91;;;8.95;48.52
71697;BME280;68167;59.120;37.898;2023-05-01T02:38:16;99087.00;;;9.12;49.01
71697;BME280;68167;59.120;37.898;2023-05-01T02:40:55;99094.44;;;9.15;48.36
71697;BME280;68167;59.120;37.898;2023-05-01T02:43:24;99033.38;;;8.90;49.16
71697;BME280;68167;59.120;37.898;2023-05-01T02:45:52;99075.06;;;9.15;48.96
71697;BME280;68167;59.120;37.898;2023-05-01T02:48:23;99052.78;;;9.06;48.42
71697;BME280;68167;59.120;37.898;2023-05-01T02:50:51;99037.63;;;8.96;48.93
71697;BME280;68167;59.120;37.898;2023-05-01T02:53:19;99033.66;;;8.94;49.17
71697;BME280;68167;59.120;37.898;2023-05-01T02:55:50;99024.09;;;8.87;48.61
71697;BME280;68167;59.120;37.898;2023-05-01T02:58:17;99025.69;;;8.88;48.80
71697;BME280;68167;59.120;37.898;2023-05-01T03:00:44;99028.59;;;8.87;48.61
71697;BME280;68167;59.120;37.898;2023-05-01T03:03:12;99057.56;;;9.09;48.65
71697;BME280;68167;59.120;37.898;2023-05-01T03:05:38;99025.16;;;8.86;48.89
71697;BME280;68167;59.120;37.898;2023-05-01T03:08:06;99016.66;;;8.84;49.06
71697;BME280;68167;59.120;37.898;2023-05-01T03:10:33;98968.59;;;8.55;49.09
71697;BME280;68167;59.120;37.898;2023-05-01T03:12:59;99058.88;;;9.06;49.27
71697;BME280;68167;59.120;37.898;2023-05-01T03:15:26;99024.09;;;8.93;49.28
71697;BME280;68167;59.120;37.898;2023-05-01T03:17:53;99033.66;;;8.94;49.15
71697;BME280;68167;59.120;37.898;2023-05-01T03:20:19;99026.22;;;8.90;48.65
71697;BME280;68167;59.120;37.898;2023-05-01T03:22:45;99012.41;;;8.83;49.05
71697;BME280;68167;59.120;37.898;2023-05-01T03:25:12;99058.06;;;9.11;49.89
71697;BME280;68167;59.120;37.898;2023-05-01T03:27:38;99025.41;;;8.90;50.20
71697;BME280;68167;59.120;37.898;2023-05-01T03:30:05;99019.31;;;8.95;50.39
71697;BME280;68167;59.120;37.898;2023-05-01T03:32:37;99038.44;;;9.07;49.89
71697;BME280;68167;59.120;37.898;2023-05-01T03:35:05;99008.44;;;8.86;50.19
71697;BME280;68167;59.120;37.898;2023-05-01T03:37:32;99005.50;;;8.82;50.61
71697;BME280;68167;59.120;37.898;2023-05-01T03:39:59;99054.09;;;9.13;50.39
71697;BME280;68167;59.120;37.898;2023-05-01T03:42:44;99040.03;;;9.03;49.32
71697;BME280;68167;59.120;37.898;2023-05-01T03:45:18;99021.97;;;8.89;49.80
71697;BME280;68167;59.120;37.898;2023-05-01T03:47:44;99040.03;;;9.08;49.22
71697;BME280;68167;59.120;37.898;2023-05-01T03:50:11;98996.22;;;8.90;49.00
71697;BME280;68167;59.120;37.898;2023-05-01T03:52:41;99054.88;;;9.24;49.55
71697;BME280;68167;59.120;37.898;2023-05-01T03:55:07;99045.31;;;9.23;48.80
71697;BME280;68167;59.120;37.898;2023-05-01T03:57:46;99023.03;;;9.14;48.93
71697;BME280;68167;59.120;37.898;2023-05-01T04:00:13;99034.16;;;9.31;48.99
71697;BME280;68167;59.120;37.898;2023-05-01T04:02:43;99040.28;;;9.37;48.73
71697;BME280;68167;59.120;37.898;2023-05-01T04:05:14;99001.25;;;9.17;49.31
71697;BME280;68167;59.120;37.898;2023-05-01T04:07:44;98986.13;;;9.17;50.01
71697;BME280;68167;59.120;37.898;2023-05-01T04:10:10;99034.94;;;9.52;49.30
71697;BME280;68167;59.120;37.898;2023-05-01T04:12:42;98981.34;;;9.24;49.59
71697;BME280;68167;59.120;37.898;2023-05-01T04:15:09;98961.41;;;9.22;49.15
71697;BME280;68167;59.120;37.898;2023-05-01T04:17:35;98983.19;;;9.29;49.47
71697;BME280;68167;59.120;37.898;2023-05-01T04:20:03;99016.34;;;9.52;49.64
71697;BME280;68167;59.120;37.898;2023-05-01T04:22:32;99013.16;;;9.50;49.91
71697;BME280;68167;59.120;37.898;2023-05-01T04:24:59;99023.00;;;9.54;49.54
71697;BME280;68167;59.120;37.898;2023-05-01T04:27:25;99001.47;;;9.51;49.84
71697;BME280;68167;59.120;37.898;2023-05-01T04:29:51;98992.44;;;9.57;50.30
71697;BME280;68167;59.120;37.898;2023-05-01T04:32:18;98921.34;;;9.13;50.25
71697;BME280;68167;59.120;37.898;2023-05-01T04:34:45;98997.75;;;9.57;50.03
71697;BME280;68167;59.120;37.898;2023-05-01T04:37:11;99012.34;;;9.65;50.18
71697;BME280;68167;59.120;37.898;2023-05-01T04:39:39;99018.19;;;9.72;49.82
71697;BME280;68167;59.120;37.898;2023-05-01T04:42:06;98977.84;;;9.49;50.25
71697;BME280;68167;59.120;37.898;2023-05-01T04:44:32;98999.06;;;9.65;50.18
71697;BME280;68167;59.120;37.898;2023-05-01T04:47:02;99016.06;;;9.69;49.66
71697;BME280;68167;59.120;37.898;2023-05-01T04:49:28;98973.34;;;9.45;50.08
71697;BME280;68167;59.120;37.898;2023-05-01T04:51:54;98972.03;;;9.37;50.25
71697;BME280;68167;59.120;37.898;2023-05-01T04:54:23;99001.47;;;9.56;50.19
71697;BME280;68167;59.120;37.898;2023-05-01T04:56:50;99008.38;;;9.52;49.95
71697;BME280;68167;59.120;37.898;2023-05-01T04:59:17;98944.69;;;9.11;50.44
71697;BME280;68167;59.120;37.898;2023-05-01T05:01:44;98982.38;;;9.34;50.27
71697;BME280;68167;59.120;37.898;2023-05-01T05:04:10;99002.31;;;9.36;50.19
71697;BME280;68167;59.120;37.898;2023-05-01T05:06:37;98983.19;;;9.29;50.56
71697;BME280;68167;59.120;37.898;2023-05-01T05:09:06;98999.38;;;9.43;51.15
71697;BME280;68167;59.120;37.898;2023-05-01T05:11:32;98937.53;;;9.12;51.14
71697;BME280;68167;59.120;37.898;2023-05-01T05:14:10;99027.25;;;9.61;50.64
71697;BME280;68167;59.120;37.898;2023-05-01T05:16:36;98977.84;;;9.39;51.88
71697;BME280;68167;59.120;37.898;2023-05-01T05:19:03;99019.53;;;9.69;51.44
71697;BME280;68167;59.120;37.898;2023-05-01T05:21:34;98987.13;;;9.52;51.45
71697;BME280;68167;59.120;37.898;2023-05-01T05:24:02;98962.97;;;9.48;51.66
71697;BME280;68167;59.120;37.898;2023-05-01T05:26:28;98962.16;;;9.53;52.66
71697;BME280;68167;59.120;37.898;2023-05-01T05:28:57;99011.22;;;9.81;52.07
71697;BME280;68167;59.120;37.898;2023-05-01T05:31:24;99005.13;;;9.75;53.41
71697;BME280;68167;59.120;37.898;2023-05-01T05:33:50;99015.47;;;9.77;53.21
71697;BME280;68167;59.120;37.898;2023-05-01T05:36:17;98975.19;;;9.54;52.68
71697;BME280;68167;59.120;37.898;2023-05-01T05:38:44;98969.84;;;9.60;52.48
71697;BME280;68167;59.120;37.898;2023-05-01T05:41:15;99000.59;;;9.81;52.61
71697;BME280;68167;59.120;37.898;2023-05-01T05:43:43;98962.41;;;9.62;52.02
71697;BME280;68167;59.120;37.898;2023-05-01T05:46:09;98966.66;;;9.63;52.07
71697;BME280;68167;59.120;37.898;2023-05-01T05:48:37;99016.22;;;9.98;52.63
71697;BME280;68167;59.120;37.898;2023-05-01T05:51:04;98997.09;;;9.96;52.26
71697;BME280;68167;59.120;37.898;2023-05-01T05:53:31;98945.09;;;9.69;52.19
71697;BME280;68167;59.120;37.898;2023-05-01T05:55:57;98942.44;;;9.69;52.45
71697;BME280;68167;59.120;37.898;2023-05-01T05:58:24;99006.63;;;10.07;52.88
71697;BME280;68167;59.120;37.898;2023-05-01T06:00:51;98963.38;;;9.86;52.78
71697;BME280;68167;59.120;37.898;2023-05-01T06:03:21;98998.91;;;10.10;52.72
71697;BME280;68167;59.120;37.898;2023-05-01T06:05:49;99008.72;;;10.20;53.36
71697;BME280;68167;59.120;37.898;2023-05-01T06:08:15;98958.53;;;9.98;53.10
71697;BME280;68167;59.120;37.898;2023-05-01T06:10:43;99010.28;;;10.31;53.84
71697;BME280;68167;59.120;37.898;2023-05-01T06:13:09;98976.53;;;10.16;53.76
71697;BME280;68167;59.120;37.898;2023-05-01T06:15:37;98985.53;;;10.31;53.56
71697;BME280;68167;59.120;37.898;2023-05-01T06:18:04;98955.25;;;10.16;53.30
71697;BME280;68167;59.120;37.898;2023-05-01T06:20:31;98995.81;;;10.42;54.37
71697;BME280;68167;59.120;37.898;2023-05-01T06:22:57;98991.00;;;10.49;53.88
71697;BME280;68167;59.120;37.898;2023-05-01T06:25:40;98996.84;;;10.51;53.66
71697;BME280;68167;59.120;37.898;2023-05-01T06:28:06;98989.91;;;10.50;53.36
71697;BME280;68167;59.120;37.898;2023-05-01T06:30:33;98977.47;;;10.41;53.16
71697;BME280;68167;59.120;37.898;2023-05-01T06:33:00;98980.06;;;10.51;53.49
71697;BME280;68167;59.120;37.898;2023-05-01T06:35:27;98955.19;;;10.37;53.98
71697;BME280;68167;59.120;37.898;2023-05-01T06:37:54;98943.81;;;10.26;53.41
71697;BME280;68167;59.120;37.898;2023-05-01T06:40:21;98957.59;;;10.33;53.45
71697;BME280;68167;59.120;37.898;2023-05-01T06:42:48;98996.53;;;10.58;53.40
71697;BME280;68167;59.120;37.898;2023-05-01T06:45:14;99006.28;;;10.73;53.24
71697;BME280;68167;59.120;37.898;2023-05-01T06:47:41;98949.53;;;10.43;53.78
71697;BME280;68167;59.120;37.898;2023-05-01T06:50:09;98996.66;;;10.82;53.74
71697;BME280;68167;59.120;37.898;2023-05-01T06:52:35;98972.72;;;10.77;53.70
71697;BME280;68167;59.120;37.898;2023-05-01T06:55:02;98977.25;;;10.76;53.80
71697;BME280;68167;59.120;37.898;2023-05-01T06:57:31;99011.59;;;11.07;53.74
71697;BME280;68167;59.120;37.898;2023-05-01T06:59:58;98923.00;;;10.67;53.38
71697;BME280;68167;59.120;37.898;2023-05-01T07:02:24;99000.78;;;11.27;52.92
71697;BME280;68167;59.120;37.898;2023-05-01T07:04:52;99009.22;;;11.39;52.69
71697;BME280;68167;59.120;37.898;2023-05-01T07:07:18;99011.25;;;11.47;52.75
71697;BME280;68167;59.120;37.898;2023-05-01T07:09:44;99009.06;;;11.54;52.33
71697;BME280;68167;59.120;37.898;2023-05-01T07:12:11;98962.59;;;11.37;51.18
71697;BME280;68167;59.120;37.898;2023-05-01T07:14:38;99013.88;;;11.76;51.09
71697;BME280;68167;59.120;37.898;2023-05-01T07:17:04;99002.13;;;11.82;50.22
71697;BME280;68167;59.120;37.898;2023-05-01T07:19:31;98999.69;;;11.86;50.25
71697;BME280;68167;59.120;37.898;2023-05-01T07:21:58;98994.56;;;11.90;51.00
71697;BME280;68167;59.120;37.898;2023-05-01T07:24:24;99001.25;;;12.11;50.42
71697;BME280;68167;59.120;37.898;2023-05-01T07:26:50;98995.22;;;12.24;49.82
71697;BME280;68167;59.120;37.898;2023-05-01T07:29:17;98936.41;;;11.92;48.93
71697;BME280;68167;59.120;37.898;2023-05-01T07:31:44;98946.16;;;12.01;48.94
71697;BME280;68167;59.120;37.898;2023-05-01T07:34:11;99005.44;;;12.36;48.99
71697;BME280;68167;59.120;37.898;2023-05-01T07:36:38;98942.13;;;12.04;48.92
71697;BME280;68167;59.120;37.898;2023-05-01T07:39:04;99006.09;;;12.46;48.94
71697;BME280;68167;59.120;37.898;2023-05-01T07:41:31;98996.66;;;12.54;48.29
71697;BME280;68167;59.120;37.898;2023-05-01T07:43:58;98979.41;;;12.65;47.43
71697;BME280;68167;59.120;37.898;2023-05-01T07:46:24;98984.75;;;12.84;46.91
71697;BME280;68167;59.120;37.898;2023-05-01T07:48:52;98964.03;;;12.76;46.48
71697;BME280;68167;59.120;37.898;2023-05-01T07:51:18;98960.72;;;12.84;46.05
71697;BME280;68167;59.120;37.898;2023-05-01T07:53:44;98976.50;;;12.99;45.33
71697;BME280;68167;59.120;37.898;2023-05-01T07:56:12;98994.13;;;13.14;44.98
71697;BME280;68167;59.120;37.898;2023-05-01T07:58:38;98966.09;;;12.98;44.92
71697;BME280;68167;59.120;37.898;2023-05-01T08:01:06;98948.47;;;12.97;44.57
71697;BME280;68167;59.120;37.898;2023-05-01T08:03:32;98929.06;;;12.91;44.63
71697;BME280;68167;59.120;37.898;2023-05-01T08:05:59;98986.25;;;13.23;43.90
71697;BME280;68167;59.120;37.898;2023-05-01T08:08:25;98985.69;;;13.26;43.34
71697;BME280;68167;59.120;37.898;2023-05-01T08:10:52;98984.69;;;13.22;42.81
71697;BME280;68167;59.120;37.898;2023-05-01T08:13:18;98904.28;;;12.72;43.50
71697;BME280;68167;59.120;37.898;2023-05-01T08:15:46;98989.44;;;13.25;42.28
71697;BME280;68167;59.120;37.898;2023-05-01T08:18:12;98974.06;;;13.16;41.91
71697;BME280;68167;59.120;37.898;2023-05-01T08:20:45;98978.16;;;13.28;42.00
71697;BME280;68167;59.120;37.898;2023-05-01T08:23:14;98989.75;;;13.37;42.10
71697;BME280;68167;59.120;37.898;2023-05-01T08:25:40;99002.63;;;13.35;41.63
71697;BME280;68167;59.120;37.898;2023-05-01T08:28:07;98996.69;;;13.38;42.11
71697;BME280;68167;59.120;37.898;2023-05-01T08:30:33;98999.16;;;13.34;42.47
71697;BME280;68167;59.120;37.898;2023-05-01T08:33:00;99010.00;;;13.57;42.63
71697;BME280;68167;59.120;37.898;2023-05-01T08:35:26;98969.97;;;13.38;42.65
71697;BME280;68167;59.120;37.898;2023-05-01T08:37:52;98989.59;;;13.61;41.70
71697;BME280;68167;59.120;37.898;2023-05-01T08:40:19;99020.13;;;14.01;41.59
71697;BME280;68167;59.120;37.898;2023-05-01T08:42:46;98988.22;;;13.91;40.99
71697;BME280;68167;59.120;37.898;2023-05-01T08:45:14;99012.59;;;14.16;40.69
71697;BME280;68167;59.120;37.898;2023-05-01T08:47:44;99037.13;;;14.32;39.86
71697;BME280;68167;59.120;37.898;2023-05-01T08:50:12;98998.31;;;14.07;40.27
71697;BME280;68167;59.120;37.898;2023-05-01T08:52:42;99007.03;;;13.99;40.09
71697;BME280;68167;59.120;37.898;2023-05-01T08:55:12;99054.78;;;14.33;40.33
71697;BME280;68167;59.120;37.898;2023-05-01T08:57:43;99013.69;;;14.02;40.13
71697;BME280;68167;59.120;37.898;2023-05-01T09:00:16;99030.13;;;14.23;40.37
71697;BME280;68167;59.120;37.898;2023-05-01T09:02:45;99064.63;;;14.52;39.94
71697;BME280;68167;59.120;37.898;2023-05-01T09:05:15;99053.09;;;14.51;39.44
71697;BME280;68167;59.120;37.898;2023-05-01T09:07:43;99035.78;;;14.21;39.52
71697;BME280;68167;59.120;37.898;2023-05-01T09:10:16;99046.69;;;14.25;39.59
71697;BME280;68167;59.120;37.898;2023-05-01T09:12:48;99039.34;;;14.16;39.54
71697;BME280;68167;59.120;37.898;2023-05-01T09:15:19;99085.84;;;14.48;39.71
71697;BME280;68167;59.120;37.898;2023-05-01T09:17:46;99078.72;;;14.43;39.49
71697;BME280;68167;59.120;37.898;2023-05-01T09:20:12;99073.34;;;14.43;39.40
71697;BME280;68167;59.120;37.898;2023-05-01T09:22:40;99075.09;;;14.34;39.62
71697;BME280;68167;59.120;37.898;2023-05-01T09:25:06;99078.78;;;14.38;39.38
71697;BME280;68167;59.120;37.898;2023-05-01T09:27:34;99070.75;;;14.38;39.52
71697;BME280;68167;59.120;37.898;2023-05-01T09:30:00;99087.94;;;14.51;40.13
71697;BME280;68167;59.120;37.898;2023-05-01T09:32:31;99052.69;;;14.30;40.53
71697;BME280;68167;59.120;37.898;2023-05-01T09:35:12;99094.28;;;14.55;40.95
71697;BME280;68167;59.120;37.898;2023-05-01T09:37:40;99116.38;;;14.61;41.42
71697;BME280;68167;59.120;37.898;2023-05-01T09:40:08;99034.88;;;14.12;41.81
71697;BME280;68167;59.120;37.898;2023-05-01T09:42:41;99112.22;;;14.68;41.67
71697;BME280;68167;59.120;37.898;2023-05-01T09:45:14;99103.16;;;14.78;42.04
71697;BME280;68167;59.120;37.898;2023-05-01T09:47:41;99127.38;;;14.87;41.47
71697;BME280;68167;59.120;37.898;2023-05-01T09:50:28;99092.06;;;14.71;41.28
71697;BME280;68167;59.120;37.898;2023-05-01T09:52:54;99110.13;;;14.65;40.81
71697;BME280;68167;59.120;37.898;2023-05-01T09:55:21;99118.69;;;14.54;40.81
71697;BME280;68167;59.120;37.898;2023-05-01T09:57:48;99112.59;;;14.34;41.29
71697;BME280;68167;59.120;37.898;2023-05-01T10:00:16;99069.66;;;13.84;41.18
71697;BME280;68167;59.120;37.898;2023-05-01T10:02:45;99043.72;;;13.39;41.63
71697;BME280;68167;59.120;37.898;2023-05-01T10:05:12;99083.81;;;13.39;42.33
71697;BME280;68167;59.120;37.898;2023-05-01T10:07:53;99129.34;;;13.34;42.96
71697;BME280;68167;59.120;37.898;2023-05-01T10:10:21;99075.06;;;12.82;43.96
71697;BME280;68167;59.120;37.898;2023-05-01T10:12:48;99122.84;;;12.83;45.65
71697;BME280;68167;59.120;37.898;2023-05-01T10:15:16;99069.59;;;12.31;45.20
71697;BME280;68167;59.120;37.898;2023-05-01T10:17:43;99114.31;;;12.39;45.13
71697;BME280;68167;59.120;37.898;2023-05-01T10:20:10;99092.13;;;12.19;45.42
71697;BME280;68167;59.120;37.898;2023-05-01T10:22:39;99109.00;;;12.15;46.98
71697;BME280;68167;59.120;37.898;2023-05-01T10:25:09;98978.13;;;11.30;46.22
71697;BME280;68167;59.120;37.898;2023-05-01T10:27:40;99107.69;;;12.12;46.58
71697;BME280;68167;59.120;37.898;2023-05-01T10:30:08;99100.13;;;11.96;46.70
71697;BME280;68167;59.120;37.898;2023-05-01T10:32:36;99085.06;;;11.81;46.74
71697;BME280;68167;59.120;37.898;2023-05-01T10:35:07;99127.13;;;11.89;46.84
71697;BME280;68167;59.120;37.898;2023-05-01T10:37:47;99100.47;;;11.55;47.50
71697;BME280;68167;59.120;37.898;2023-05-01T10:43:17;99189.00;;;11.52;48.07
71697;BME280;68167;59.120;37.898;2023-05-01T10:45:45;99127.78;;;11.03;49.28
71697;BME280;68167;59.120;37.898;2023-05-01T10:48:20;99157.44;;;10.81;50.48
71697;BME280;68167;59.120;37.898;2023-05-01T10:51:23;99157.75;;;10.69;49.68
71697;BME280;68167;59.120;37.898;2023-05-01T10:56:40;99224.31;;;10.64;51.40
71697;BME280;68167;59.120;37.898;2023-05-01T10:59:07;99168.81;;;10.32;51.63
71697;BME280;68167;59.120;37.898;2023-05-01T11:01:41;99178.38;;;10.33;52.30
71697;BME280;68167;59.120;37.898;2023-05-01T11:12:09;99243.81;;;10.34;52.77
71697;BME280;68167;59.120;37.898;2023-05-01T11:22:39;99228.69;;;10.19;52.37
71697;BME280;68167;59.120;37.898;2023-05-01T11:27:51;99271.16;;;10.65;52.83
71697;BME280;68167;59.120;37.898;2023-05-01T11:30:18;99258.06;;;10.84;52.10
71697;BME280;68167;59.120;37.898;2023-05-01T11:32:47;99274.38;;;11.37;52.00
71697;BME280;68167;59.120;37.898;2023-05-01T11:35:25;99224.81;;;11.36;50.44
71697;BME280;68167;59.120;37.898;2023-05-01T11:37:52;99282.31;;;11.91;50.05
71697;BME280;68167;59.120;37.898;2023-05-01T11:40:24;99219.44;;;11.85;49.53
71697;BME280;68167;59.120;37.898;2023-05-01T11:43:00;99271.69;;;12.49;49.44
71697;BME280;68167;59.120;37.898;2023-05-01T11:45:28;99229.97;;;12.00;48.60
71697;BME280;68167;59.120;37.898;2023-05-01T11:47:54;99294.38;;;12.23;48.13
71697;BME280;68167;59.120;37.898;2023-05-01T11:50:21;99293.94;;;12.10;47.92
71697;BME280;68167;59.120;37.898;2023-05-01T11:52:51;99293.53;;;11.88;47.88
71697;BME280;68167;59.120;37.898;2023-05-01T11:55:20;99318.25;;;11.54;47.90
71697;BME280;68167;59.120;37.898;2023-05-01T11:57:56;99295.22;;;11.19;48.66
71697;BME280;68167;59.120;37.898;2023-05-01T12:00:27;99334.34;;;11.34;48.75
71697;BME280;68167;59.120;37.898;2023-05-01T12:05:25;99349.91;;;11.02;48.60
71697;BME280;68167;59.120;37.898;2023-05-01T12:10:37;99307.91;;;10.48;48.58
71697;BME280;68167;59.120;37.898;2023-05-01T12:13:05;99338.50;;;10.66;49.52
71697;BME280;68167;59.120;37.898;2023-05-01T12:15:37;99305.25;;;10.53;48.87
71697;BME280;68167;59.120;37.898;2023-05-01T12:18:04;99303.38;;;10.59;48.43
71697;BME280;68167;59.120;37.898;2023-05-01T12:20:35;99348.31;;;10.96;48.01
71697;BME280;68167;59.120;37.898;2023-05-01T12:23:04;99274.91;;;10.54;47.56
71697;BME280;68167;59.120;37.898;2023-05-01T12:25:34;99346.22;;;10.82;46.91
71697;BME280;68167;59.120;37.898;2023-05-01T12:28:18;99334.50;;;10.63;47.44
71697;BME280;68167;59.120;37.898;2023-05-01T12:30:46;99341.97;;;10.61;47.44
71697;BME280;68167;59.120;37.898;2023-05-01T12:33:16;99343.06;;;10.35;47.30
71697;BME280;68167;59.120;37.898;2023-05-01T12:35:44;99371.78;;;10.33;47.68
71697;BME280;68167;59.120;37.898;2023-05-01T12:38:19;99402.13;;;10.32;47.88
71697;BME280;68167;59.120;37.898;2023-05-01T12:40:50;99357.56;;;9.86;46.76
71697;BME280;68167;59.120;37.898;2023-05-01T12:43:32;99355.44;;;9.68;47.92
71697;BME280;68167;59.120;37.898;2023-05-01T12:46:00;99391.34;;;9.86;48.13
71697;BME280;68167;59.120;37.898;2023-05-01T12:48:27;99361.22;;;9.55;48.04
71697;BME280;68167;59.120;37.898;2023-05-01T12:50:54;99401.94;;;9.71;48.32
71697;BME280;68167;59.120;37.898;2023-05-01T12:53:26;99359.00;;;9.37;48.35
71697;BME280;68167;59.120;37.898;2023-05-01T12:55:55;99370.69;;;9.36;48.62
71697;BME280;68167;59.120;37.898;2023-05-01T12:58:22;99405.59;;;9.54;48.42
71697;BME280;68167;59.120;37.898;2023-05-01T13:00:51;99416.44;;;9.48;48.76
71697;BME280;68167;59.120;37.898;2023-05-01T13:03:26;99419.53;;;9.30;48.94
71697;BME280;68167;59.120;37.898;2023-05-01T13:05:58;99431.16;;;9.18;49.37
71697;BME280;68167;59.120;37.898;2023-05-01T13:08:40;99398.28;;;8.82;49.14
71697;BME280;68167;59.120;37.898;2023-05-01T13:11:15;99379.31;;;8.69;49.41
71697;BME280;68167;59.120;37.898;2023-05-01T13:13:47;99432.22;;;8.80;49.68
71697;BME280;68167;59.120;37.898;2023-05-01T13:16:15;99448.47;;;8.89;49.79
71697;BME280;68167;59.120;37.898;2023-05-01T13:18:46;99450.63;;;8.92;50.22
71697;BME280;68167;59.120;37.898;2023-05-01T13:21:18;99456.16;;;8.85;50.26
71697;BME280;68167;59.120;37.898;2023-05-01T13:24:04;99464.13;;;8.85;49.67
71697;BME280;68167;59.120;37.898;2023-05-01T13:26:33;99413.56;;;8.38;49.84
71697;BME280;68167;59.120;37.898;2023-05-01T13:29:02;99479.59;;;8.67;50.46
71697;BME280;68167;59.120;37.898;2023-05-01T13:31:30;99475.75;;;8.52;51.01
71697;BME280;68167;59.120;37.898;2023-05-01T13:33:58;99448.41;;;8.25;51.30
71697;BME280;68167;59.120;37.898;2023-05-01T13:36:24;99442.81;;;8.00;50.77
71697;BME280;68167;59.120;37.898;2023-05-01T13:38:56;99505.09;;;8.19;51.68
71697;BME280;68167;59.120;37.898;2023-05-01T13:41:24;99479.25;;;7.87;51.97
71697;BME280;68167;59.120;37.898;2023-05-01T13:43:52;99525.44;;;8.13;52.13
71697;BME280;68167;59.120;37.898;2023-05-01T13:46:22;99501.38;;;7.98;52.29
71697;BME280;68167;59.120;37.898;2023-05-01T13:48:49;99473.66;;;7.62;52.70